CYOJ

High Level Airport

High Level, Alberta, Canada
METAR CYOJ 242000Z 14007KT 15SM FEW020 BKN260 M08/M13 A2964 RMK SC1CS5 SLP066
Observed Flight Rules
Feb-24 @ 20:00 UTC (14 minutes ago) Visual Flight Rules
Wind Visibility Clouds
140° at 7 knots 15 miles
  • Few at 2,000' AGL
  • Broken at 26,000' AGL
Temperatures Readings
Current -8°C / 18°F
Dewpoint -13°C / 9°F
Humidity 68%
Altimeter 29.64" Hg
Pressure 1006.6 hPa
Elevation 338
METAR CYOJ 242000Z 14007KT 15SM FEW020 BKN260 M08/M13 A2964 RMK SC1CS5 SLP066
Observed Flight Rules
Feb-24 @ 20:00 UTC
(14 minutes ago)
VFR
Wind Visibility
140° at 7 knots 15 miles
Clouds
  • Few at 2,000' AGL
  • Broken at 26,000' AGL
Temperature Dewpoint
-8°C / 18°F -13°C / 9°F
Humidity Altimeter Pressure
68% 29.64" Hg 1006.6 hPa